createdAt,value
2017-09-01T12:09:55.536Z,9.23
2017-09-01T12:12:21.721Z,8.00
2017-09-01T12:14:47.896Z,8.73
2017-09-01T12:17:14.086Z,10.03
2017-09-01T12:19:40.298Z,9.00
2017-09-01T12:22:06.463Z,7.90
2017-09-01T12:24:32.643Z,8.20
2017-09-01T12:26:58.840Z,7.17
2017-09-01T12:29:25.027Z,8.17
2017-09-01T12:31:51.246Z,7.33
2017-09-01T12:34:17.458Z,8.20
2017-09-01T12:36:43.666Z,8.10
2017-09-01T12:39:09.841Z,6.53
2017-09-01T12:41:36.023Z,6.87
2017-09-01T12:44:02.210Z,7.33
2017-09-01T12:46:28.411Z,7.43
2017-09-01T12:48:54.636Z,8.30
2017-09-01T12:51:20.825Z,9.90
2017-09-01T12:53:46.994Z,7.90
2017-09-01T12:56:13.177Z,7.73
2017-09-01T12:58:39.493Z,6.70
2017-09-01T13:01:05.679Z,6.80
2017-09-01T13:03:31.892Z,6.20
2017-09-01T13:05:58.076Z,6.73
2017-09-01T13:08:24.263Z,7.40
2017-09-01T13:10:50.449Z,6.47
2017-09-01T13:13:16.650Z,7.70
2017-09-01T13:15:42.854Z,6.70
2017-09-01T13:18:09.031Z,7.50
2017-09-01T13:20:35.217Z,7.40
2017-09-01T13:23:01.415Z,7.47
2017-09-01T13:25:27.597Z,7.30
2017-09-01T13:27:53.853Z,7.30
2017-09-01T13:30:20.051Z,8.27
2017-09-01T13:32:46.223Z,7.63
2017-09-01T13:35:12.403Z,7.70
2017-09-01T13:37:38.583Z,7.33
2017-09-01T13:40:04.778Z,8.67
2017-09-01T13:42:30.975Z,8.10
2017-09-01T13:44:57.160Z,6.63
2017-09-01T13:47:23.338Z,7.50
2017-09-01T13:49:49.530Z,8.30
2017-09-01T13:52:15.722Z,7.17
2017-09-01T13:54:41.895Z,7.10
2017-09-01T13:57:08.082Z,5.90
2017-09-01T13:59:34.413Z,8.20
2017-09-01T14:02:00.618Z,6.43
2017-09-01T14:04:26.795Z,6.27
2017-09-01T14:06:52.968Z,5.27
2017-09-01T14:09:19.181Z,4.60
2017-09-01T14:11:45.353Z,4.47
2017-09-01T14:14:11.531Z,4.60
2017-09-01T14:16:37.727Z,4.13
2017-09-01T14:19:03.928Z,4.47
2017-09-01T14:21:30.126Z,4.77
2017-09-01T14:23:56.307Z,3.80
2017-09-01T14:26:22.518Z,4.03
2017-09-01T14:28:48.706Z,4.60
2017-09-01T14:31:14.885Z,5.00
2017-09-01T14:33:41.072Z,5.17
2017-09-01T14:36:07.248Z,5.30
2017-09-01T14:38:33.440Z,6.13
2017-09-01T14:40:59.643Z,5.07
2017-09-01T14:43:25.867Z,5.13
2017-09-01T14:45:52.063Z,5.33
2017-09-01T14:48:18.254Z,5.17
2017-09-01T14:50:44.433Z,5.50
2017-09-01T14:53:10.613Z,4.80
2017-09-01T14:55:36.809Z,5.60
2017-09-01T14:58:02.997Z,4.53
2017-09-01T15:00:29.195Z,4.90
2017-09-01T15:02:55.397Z,4.80
2017-09-01T15:05:21.608Z,5.23
2017-09-01T15:07:47.825Z,7.30
2017-09-01T15:10:14.161Z,6.80
2017-09-01T15:12:40.399Z,7.17
2017-09-01T15:15:06.610Z,5.80
2017-09-01T15:17:32.772Z,6.23
2017-09-01T15:19:59.067Z,6.93
2017-09-01T15:22:25.259Z,6.90
2017-09-01T15:24:51.463Z,7.10
2017-09-01T15:27:17.672Z,7.83
2017-09-01T15:29:43.846Z,6.80
2017-09-01T15:32:10.039Z,7.67
2017-09-01T15:34:36.246Z,7.47
2017-09-01T15:37:02.422Z,7.50
2017-09-01T15:39:28.616Z,7.10
2017-09-01T15:41:54.819Z,8.63
2017-09-01T15:44:20.993Z,8.70
2017-09-01T15:46:48.299Z,7.90
2017-09-01T15:49:14.511Z,7.97
2017-09-01T15:51:40.702Z,7.50
2017-09-01T15:54:06.902Z,9.40
2017-09-01T15:56:33.106Z,9.07
2017-09-01T15:58:59.424Z,8.40
2017-09-01T16:01:25.606Z,8.50
2017-09-01T16:03:51.785Z,8.67
2017-09-01T16:06:17.972Z,8.17
2017-09-01T16:08:44.181Z,9.00
2017-09-01T16:11:10.395Z,9.70
2017-09-01T16:13:36.561Z,8.40
2017-09-01T16:16:02.752Z,8.60
2017-09-01T16:18:28.938Z,8.50
2017-09-01T16:20:55.134Z,9.50
2017-09-01T16:23:21.418Z,9.20
2017-09-01T16:25:47.597Z,8.70
2017-09-01T16:28:13.810Z,8.83
2017-09-01T16:30:40.027Z,9.60
2017-09-01T16:33:06.234Z,9.67
2017-09-01T16:35:32.445Z,10.00
2017-09-01T16:37:58.636Z,10.03
2017-09-01T16:40:24.846Z,9.43
2017-09-01T16:42:51.046Z,9.23
2017-09-01T16:45:17.246Z,9.70
2017-09-01T16:47:43.419Z,8.73
2017-09-01T16:50:09.606Z,10.10
2017-09-01T16:52:35.790Z,9.87
2017-09-01T16:55:02.000Z,9.83
2017-09-01T16:57:28.250Z,10.50
2017-09-01T16:59:54.455Z,9.93
2017-09-01T17:04:49.475Z,10.10
2017-09-01T17:07:17.837Z,10.43
2017-09-01T17:09:46.191Z,9.30
2017-09-01T17:12:14.555Z,10.07
2017-09-01T17:14:43.894Z,9.23
2017-09-01T17:17:12.239Z,11.00
2017-09-01T17:19:41.404Z,11.77
2017-09-01T17:22:09.944Z,12.67
2017-09-01T17:24:38.303Z,11.83
2017-09-01T17:27:06.664Z,10.70
2017-09-01T17:29:35.810Z,9.30
2017-09-01T17:32:04.370Z,9.80
2017-09-01T17:34:32.754Z,11.37
2017-09-01T17:37:01.126Z,13.87
2017-09-01T17:39:29.508Z,19.87
2017-09-01T17:41:57.885Z,26.00
2017-09-01T17:44:26.268Z,32.90
2017-09-01T17:46:54.627Z,37.67
2017-09-01T17:49:22.991Z,39.30
2017-09-01T17:51:51.355Z,41.50
2017-09-01T17:54:19.725Z,41.63
2017-09-01T17:56:48.083Z,47.10
2017-09-01T17:59:16.466Z,47.37
2017-09-01T18:01:44.821Z,45.70
2017-09-01T18:04:13.195Z,49.23
2017-09-01T18:06:41.571Z,46.03
2017-09-01T18:09:09.941Z,40.20
2017-09-01T18:11:38.380Z,37.67
2017-09-01T18:14:06.763Z,34.90
2017-09-01T18:16:35.130Z,21.70
2017-09-01T18:19:03.495Z,32.30
2017-09-01T18:21:31.885Z,26.70
2017-09-01T18:24:00.272Z,33.33
2017-09-01T18:26:28.657Z,31.33
2017-09-01T18:28:57.047Z,31.87
2017-09-01T18:31:25.426Z,34.30
2017-09-01T18:33:53.935Z,35.00
2017-09-01T18:36:22.286Z,28.70
2017-09-01T18:38:50.667Z,26.67
2017-09-01T18:41:19.059Z,34.00
2017-09-01T18:43:47.424Z,31.70
2017-09-01T18:46:15.807Z,29.23
2017-09-01T18:48:44.179Z,33.00
2017-09-01T18:51:12.596Z,34.27
2017-09-01T18:53:41.710Z,35.60
2017-09-01T18:56:10.074Z,33.70
2017-09-01T18:58:38.724Z,35.07
2017-09-01T19:01:07.112Z,32.60
2017-09-01T19:03:35.487Z,32.70
2017-09-01T19:06:03.859Z,31.53
2017-09-01T19:08:32.973Z,27.30
2017-09-01T19:11:01.552Z,27.47
2017-09-01T19:13:29.581Z,31.83
2017-09-01T19:15:57.995Z,35.13
2017-09-01T19:18:26.372Z,33.00
2017-09-01T19:20:54.817Z,34.10
2017-09-01T19:23:23.207Z,34.30
2017-09-01T19:25:51.581Z,33.40
2017-09-01T19:28:19.978Z,32.93
2017-09-01T19:30:48.571Z,33.93
2017-09-01T19:33:16.979Z,31.50
2017-09-01T19:35:45.412Z,29.63
2017-09-01T19:38:13.834Z,31.53
2017-09-01T19:40:42.203Z,30.10
2017-09-01T19:43:10.602Z,31.37
2017-09-01T19:45:39.119Z,28.60
2017-09-01T19:48:07.499Z,29.80
2017-09-01T19:50:35.864Z,32.23
2017-09-01T19:53:04.225Z,33.03
2017-09-01T19:55:33.173Z,28.47
2017-09-01T19:58:01.550Z,30.10
2017-09-01T20:00:29.992Z,30.20
2017-09-01T20:02:58.525Z,28.93
2017-09-01T20:05:26.888Z,27.63
2017-09-01T20:07:55.281Z,30.90
2017-09-01T20:10:23.646Z,30.77
2017-09-01T20:12:52.078Z,27.93
2017-09-01T20:15:20.553Z,26.30
2017-09-01T20:17:49.198Z,27.80
2017-09-01T20:20:17.567Z,28.87
2017-09-01T20:22:45.945Z,28.33
2017-09-01T20:25:14.309Z,26.00
2017-09-01T20:27:42.676Z,26.30
2017-09-01T20:30:11.083Z,26.20
2017-09-01T20:32:39.496Z,25.87
2017-09-01T20:35:08.083Z,26.80
2017-09-01T20:37:36.553Z,25.03
2017-09-01T20:40:04.932Z,26.40
2017-09-01T20:42:33.314Z,24.60
2017-09-01T20:45:01.688Z,24.97
2017-09-01T20:47:30.364Z,23.83
2017-09-01T20:49:58.720Z,24.87
2017-09-01T20:52:27.114Z,23.23
2017-09-01T20:54:55.493Z,25.30
2017-09-01T20:57:23.846Z,23.47
2017-09-01T20:59:54.326Z,24.47
2017-09-01T21:02:22.689Z,23.67
2017-09-01T21:04:51.055Z,23.20
2017-09-01T21:07:19.431Z,23.43
2017-09-01T21:09:47.810Z,22.77
2017-09-01T21:12:16.379Z,22.37
2017-09-01T21:14:45.526Z,21.80
2017-09-01T21:17:13.914Z,22.67
2017-09-01T21:19:42.327Z,21.60
2017-09-01T21:22:10.692Z,23.17
2017-09-01T21:24:39.073Z,21.20
2017-09-01T21:27:08.720Z,20.40
2017-09-01T21:29:37.287Z,22.00
2017-09-01T21:32:05.948Z,21.37
2017-09-01T21:34:34.312Z,21.07
2017-09-01T21:37:02.677Z,20.00
2017-09-01T21:39:31.383Z,20.77
2017-09-01T21:41:59.791Z,21.63
2017-09-01T21:44:28.146Z,20.90
2017-09-01T21:46:56.761Z,21.63
2017-09-01T21:49:25.771Z,22.50
2017-09-01T21:51:54.163Z,21.80
2017-09-01T21:54:22.737Z,21.80
2017-09-01T21:56:52.589Z,23.00
2017-09-01T21:59:20.958Z,22.30
2017-09-01T22:01:49.576Z,21.50
2017-09-01T22:04:17.948Z,22.03
2017-09-01T22:06:46.317Z,22.50
2017-09-01T22:09:14.701Z,21.40
2017-09-01T22:11:43.242Z,20.30
2017-09-01T22:14:11.613Z,22.23
2017-09-01T22:16:39.969Z,22.37
2017-09-01T22:19:08.725Z,22.60
2017-09-01T22:21:37.148Z,23.67
2017-09-01T22:24:06.288Z,23.87
2017-09-01T22:26:34.922Z,22.60
2017-09-01T22:29:03.286Z,22.87
2017-09-01T22:31:31.668Z,22.90
2017-09-01T22:34:00.051Z,23.67
2017-09-01T22:36:28.411Z,24.03
2017-09-01T22:38:56.595Z,23.60
2017-09-01T22:41:25.438Z,22.87
2017-09-01T22:43:53.874Z,24.53
2017-09-01T22:46:22.256Z,24.40
2017-09-01T22:48:50.626Z,22.60
2017-09-01T22:51:19.408Z,23.30
2017-09-01T22:53:48.132Z,22.50
2017-09-01T22:56:16.768Z,22.80
2017-09-01T22:58:45.296Z,24.30
2017-09-01T23:01:13.662Z,22.70
2017-09-01T23:03:42.025Z,23.33
2017-09-01T23:06:10.411Z,24.43
2017-09-01T23:08:39.066Z,23.87
2017-09-01T23:11:07.423Z,23.57
2017-09-01T23:13:35.790Z,23.10
2017-09-01T23:16:04.163Z,23.23
2017-09-01T23:18:32.579Z,22.13
2017-09-01T23:21:00.937Z,24.30
2017-09-01T23:23:29.527Z,23.20
2017-09-01T23:25:57.905Z,25.27
2017-09-01T23:28:26.482Z,28.37
2017-09-01T23:30:54.872Z,25.60
2017-09-01T23:33:23.234Z,27.77
2017-09-01T23:35:51.586Z,28.33
2017-09-01T23:38:19.953Z,27.87
2017-09-01T23:40:48.350Z,30.03
2017-09-01T23:43:16.708Z,27.70
2017-09-01T23:45:45.078Z,28.80
2017-09-01T23:48:13.463Z,28.87
2017-09-01T23:50:41.835Z,28.93
2017-09-01T23:53:10.233Z,29.00
2017-09-01T23:55:38.605Z,28.23
2017-09-01T23:58:06.978Z,31.10
